createdAt,value
2019-04-01T00:01:44.232Z,97421.19
2019-04-01T00:04:14.649Z,97424.44
2019-04-01T00:06:44.983Z,97427.89
2019-04-01T00:09:15.312Z,97425.31
2019-04-01T00:11:45.621Z,97425.68
2019-04-01T00:14:15.946Z,97426.66
2019-04-01T00:16:46.228Z,97425.78
2019-04-01T00:19:16.620Z,97430.20
2019-04-01T00:21:46.931Z,97435.56
2019-04-01T00:24:17.265Z,97428.93
2019-04-01T00:26:47.587Z,97427.22
2019-04-01T00:29:17.891Z,97427.75
2019-04-01T00:31:48.263Z,97428.45
2019-04-01T00:34:18.905Z,97430.84
2019-04-01T00:36:49.181Z,97438.41
2019-04-01T00:39:19.467Z,97441.08
2019-04-01T00:42:05.119Z,97437.63
2019-04-01T00:44:35.415Z,97437.53
2019-04-01T00:47:05.668Z,97441.44
2019-04-01T00:49:35.994Z,97434.75
2019-04-01T00:52:06.272Z,97434.55
2019-04-01T00:54:36.819Z,97437.22
2019-04-01T00:57:07.068Z,97438.66
2019-04-01T00:59:37.371Z,97430.20
2019-04-01T01:02:07.649Z,97437.78
2019-04-01T01:04:37.996Z,97439.84
2019-04-01T01:07:08.264Z,97437.94
2019-04-01T01:09:38.586Z,97434.70
2019-04-01T01:12:08.886Z,97428.30
2019-04-01T01:14:39.184Z,97438.20
2019-04-01T01:17:09.477Z,97433.00
2019-04-01T01:19:39.836Z,97432.79
2019-04-01T01:22:10.131Z,97431.08
2019-04-01T01:24:40.439Z,97431.35
2019-04-01T01:29:39.793Z,97432.42
2019-04-01T01:32:10.081Z,97431.86
2019-04-01T01:34:40.327Z,97432.63
2019-04-01T01:37:10.671Z,97433.97
2019-04-01T01:39:40.931Z,97429.55
2019-04-01T01:42:11.353Z,97438.62
2019-04-01T01:44:44.368Z,97432.58
2019-04-01T01:47:14.640Z,97434.48
2019-04-01T01:49:44.904Z,97438.14
2019-04-01T01:52:15.201Z,97434.48
2019-04-01T01:54:45.524Z,97431.64
2019-04-01T01:57:15.764Z,97435.09
2019-04-01T01:59:46.030Z,97438.72
2019-04-01T02:02:16.381Z,97436.59
2019-04-01T02:04:46.735Z,97443.20
2019-04-01T02:07:18.072Z,97440.05
2019-04-01T02:09:48.434Z,97441.30
2019-04-01T02:12:18.740Z,97436.24
2019-04-01T02:14:49.013Z,97442.00
2019-04-01T02:17:19.312Z,97443.34
2019-04-01T02:19:49.549Z,97441.70
2019-04-01T02:22:19.870Z,97442.17
2019-04-01T02:24:50.081Z,97449.91
2019-04-01T02:27:20.347Z,97449.13
2019-04-01T02:29:50.717Z,97453.55
2019-04-01T02:32:21.999Z,97447.72
2019-04-01T02:34:52.317Z,97449.44
2019-04-01T02:37:22.571Z,97443.61
2019-04-01T02:39:52.912Z,97447.88
2019-04-01T02:42:23.341Z,97443.39
2019-04-01T02:44:53.646Z,97438.20
2019-04-01T02:47:23.964Z,97440.72
2019-04-01T02:49:54.287Z,97439.48
2019-04-01T02:52:24.584Z,97438.55
2019-04-01T02:57:23.890Z,97438.62
2019-04-01T02:59:54.118Z,97438.15
2019-04-01T03:02:24.495Z,97448.56
2019-04-01T03:04:54.784Z,97444.55
2019-04-01T03:07:25.068Z,97446.50
2019-04-01T03:09:55.283Z,97447.06
2019-04-01T03:12:25.598Z,97443.41
2019-04-01T03:14:55.933Z,97448.87
2019-04-01T03:17:26.155Z,97444.43
2019-04-01T03:19:56.486Z,97454.84
2019-04-01T03:22:26.762Z,97445.96
2019-04-01T03:24:57.047Z,97444.12
2019-04-01T03:27:27.331Z,97453.25
2019-04-01T03:29:57.643Z,97451.08
2019-04-01T03:32:28.271Z,97452.78
2019-04-01T03:34:58.630Z,97454.00
2019-04-01T03:37:28.884Z,97449.88
2019-04-01T03:39:59.174Z,97453.50
2019-04-01T03:42:29.469Z,97448.55
2019-04-01T03:45:02.755Z,97453.50
2019-04-01T03:47:33.104Z,97456.18
2019-04-01T03:50:03.465Z,97446.73
2019-04-01T03:52:33.762Z,97443.09
2019-04-01T03:55:04.096Z,97445.20
2019-04-01T03:57:34.698Z,97441.66
2019-04-01T04:00:09.332Z,97446.08
2019-04-01T04:02:39.600Z,97448.19
2019-04-01T04:05:09.941Z,97451.34
2019-04-01T04:07:40.208Z,97449.53
2019-04-01T04:10:10.641Z,97454.11
2019-04-01T04:12:40.915Z,97454.02
2019-04-01T04:15:11.172Z,97456.80
2019-04-01T04:17:41.481Z,97457.16
2019-04-01T04:20:11.777Z,97458.60
2019-04-01T04:22:42.042Z,97455.55
2019-04-01T04:25:12.435Z,97455.20
2019-04-01T04:27:42.709Z,97455.97
2019-04-01T04:30:14.572Z,97452.52
2019-04-01T04:32:44.833Z,97454.70
2019-04-01T04:35:16.368Z,97451.24
2019-04-01T04:37:46.668Z,97447.37
2019-04-01T04:40:16.974Z,97453.77
2019-04-01T04:42:48.372Z,97452.30
2019-04-01T04:45:18.679Z,97459.63
2019-04-01T04:47:48.951Z,97458.81
2019-04-01T04:50:19.262Z,97463.23
2019-04-01T04:52:51.974Z,97462.73
2019-04-01T04:55:22.277Z,97457.38
2019-04-01T04:57:52.611Z,97467.67
2019-04-01T05:00:22.927Z,97472.75
2019-04-01T05:02:54.203Z,97468.73
2019-04-01T05:05:24.520Z,97480.02
2019-04-01T05:07:55.141Z,97483.47
2019-04-01T05:10:25.457Z,97483.90
2019-04-01T05:12:55.784Z,97484.83
2019-04-01T05:15:27.120Z,97484.52
2019-04-01T05:18:02.936Z,97485.30
2019-04-01T05:20:34.414Z,97488.76
2019-04-01T05:23:04.740Z,97493.55
2019-04-01T05:25:36.196Z,97489.06
2019-04-01T05:28:06.506Z,97487.63
2019-04-01T05:30:37.791Z,97494.83
2019-04-01T05:33:08.108Z,97494.83
2019-04-01T05:35:38.443Z,97489.94
2019-04-01T05:38:08.712Z,97491.02
2019-04-01T05:40:38.946Z,97498.19
2019-04-01T05:43:09.152Z,97494.64
2019-04-01T05:45:41.722Z,97502.21
2019-04-01T05:48:14.005Z,97503.86
2019-04-01T05:50:44.310Z,97500.61
2019-04-01T05:53:14.643Z,97505.20
2019-04-01T05:55:44.935Z,97506.03
2019-04-01T05:58:15.219Z,97508.66
2019-04-01T06:00:50.100Z,97502.73
2019-04-01T06:03:22.462Z,97506.75
2019-04-01T06:05:53.188Z,97505.41
2019-04-01T06:08:23.541Z,97507.13
2019-04-01T06:10:54.196Z,97507.33
2019-04-01T06:13:24.420Z,97501.10
2019-04-01T06:15:55.170Z,97503.88
2019-04-01T06:18:25.492Z,97504.09
2019-04-01T06:20:55.819Z,97503.63
2019-04-01T06:23:26.109Z,97499.59
2019-04-01T06:25:56.374Z,97507.17
2019-04-01T06:28:26.682Z,97512.03
2019-04-01T06:30:56.967Z,97515.12
2019-04-01T06:33:27.244Z,97516.77
2019-04-01T06:35:57.573Z,97515.98
2019-04-01T06:38:28.165Z,97514.65
2019-04-01T06:40:58.496Z,97515.42
2019-04-01T06:43:28.833Z,97518.95
2019-04-01T06:45:59.114Z,97513.68
2019-04-01T06:48:29.826Z,97515.42
2019-04-01T06:51:00.082Z,97516.67
2019-04-01T06:53:32.730Z,97518.88
2019-04-01T06:56:03.277Z,97512.75
2019-04-01T06:58:33.577Z,97514.45
2019-04-01T07:01:03.838Z,97516.47
2019-04-01T07:03:34.140Z,97515.44
2019-04-01T07:06:04.428Z,97507.86
2019-04-01T07:08:34.727Z,97511.32
2019-04-01T07:11:05.075Z,97514.20
2019-04-01T07:13:35.371Z,97509.70
2019-04-01T07:16:15.494Z,97509.61
2019-04-01T07:18:37.915Z,97520.80
2019-04-01T07:21:08.249Z,97514.30
2019-04-01T07:23:38.573Z,97522.05
2019-04-01T07:26:09.907Z,97524.83
2019-04-01T07:28:40.181Z,97521.58
2019-04-01T07:31:10.493Z,97523.39
2019-04-01T07:33:40.754Z,97512.29
2019-04-01T07:36:13.038Z,97527.97
2019-04-01T07:38:43.380Z,97525.13
2019-04-01T07:41:13.688Z,97532.30
2019-04-01T07:43:43.954Z,97536.02
2019-04-01T07:46:14.302Z,97537.56
2019-04-01T07:48:44.661Z,97540.19
2019-04-01T07:51:15.070Z,97537.66
2019-04-01T07:53:45.478Z,97538.07
2019-04-01T07:56:17.703Z,97536.73
2019-04-01T07:58:48.011Z,97537.09
2019-04-01T08:01:18.360Z,97542.36
2019-04-01T08:03:48.679Z,97541.80
2019-04-01T08:06:18.930Z,97540.77
2019-04-01T08:08:49.291Z,97539.52
2019-04-01T08:11:19.623Z,97533.75
2019-04-01T08:13:49.940Z,97536.74
2019-04-01T08:16:23.506Z,97537.42
2019-04-01T08:18:53.883Z,97537.92
2019-04-01T08:21:25.135Z,97541.33
2019-04-01T08:23:55.441Z,97537.71
2019-04-01T08:26:25.662Z,97533.38
2019-04-01T08:28:55.973Z,97535.80
2019-04-01T08:31:26.291Z,97533.48
2019-04-01T08:33:56.577Z,97544.79
2019-04-01T08:36:26.779Z,97544.69
2019-04-01T08:38:57.034Z,97541.80
2019-04-01T08:41:27.284Z,97538.55
2019-04-01T08:43:57.603Z,97533.96
2019-04-01T08:46:27.868Z,97537.42
2019-04-01T08:48:58.210Z,97530.51
2019-04-01T08:51:28.523Z,97539.33
2019-04-01T08:53:58.831Z,97528.33
2019-04-01T08:56:29.469Z,97524.67
2019-04-01T08:58:59.827Z,97533.28
2019-04-01T09:01:35.389Z,97527.55
2019-04-01T09:04:03.220Z,97528.95
2019-04-01T09:06:33.701Z,97516.27
2019-04-01T09:09:05.779Z,97518.38
2019-04-01T09:11:38.325Z,97511.67
2019-04-01T09:14:08.310Z,97512.45
2019-04-01T09:16:39.001Z,97509.36
2019-04-01T09:19:11.902Z,97512.70
2019-04-01T09:21:42.218Z,97506.38
2019-04-01T09:24:12.493Z,97509.55
2019-04-01T09:26:43.753Z,97512.91
2019-04-01T09:29:14.060Z,97508.42
2019-04-01T09:31:44.411Z,97501.31
2019-04-01T09:34:14.790Z,97498.06
2019-04-01T09:36:45.063Z,97497.20
2019-04-01T09:39:15.363Z,97493.95
2019-04-01T09:41:45.649Z,97488.88
2019-04-01T09:44:16.472Z,97487.53
2019-04-01T09:46:49.016Z,97489.15
2019-04-01T09:49:18.832Z,97485.83
2019-04-01T09:51:49.343Z,97486.41
2019-04-01T09:54:19.831Z,97486.30
2019-04-01T09:56:50.144Z,97475.17
2019-04-01T09:59:20.423Z,97472.48
2019-04-01T10:01:50.811Z,97467.43
2019-04-01T10:04:21.098Z,97477.78
2019-04-01T10:06:51.372Z,97464.44
2019-04-01T10:09:21.652Z,97467.43
2019-04-01T10:11:51.997Z,97472.99
2019-04-01T10:14:22.251Z,97476.05
2019-04-01T10:16:53.674Z,97463.03
2019-04-01T10:19:23.939Z,97465.62
2019-04-01T10:21:55.462Z,97459.02
2019-04-01T10:24:25.781Z,97453.15
2019-04-01T10:26:56.038Z,97451.91
2019-04-01T10:29:26.363Z,97453.92
2019-04-01T10:31:56.637Z,97451.73
2019-04-01T10:34:26.953Z,97445.88
2019-04-01T10:36:57.201Z,97445.88
2019-04-01T10:39:27.528Z,97443.30
2019-04-01T10:41:57.813Z,97448.09
2019-04-01T10:44:31.235Z,97443.89
2019-04-01T10:47:01.862Z,97439.30
2019-04-01T10:49:32.359Z,97431.32
2019-04-01T10:52:06.052Z,97435.34
2019-04-01T10:54:36.382Z,97428.64
2019-04-01T10:57:06.667Z,97435.75
2019-04-01T10:59:36.963Z,97438.53
2019-04-01T11:02:07.457Z,97433.94
2019-04-01T11:04:37.872Z,97422.70
2019-04-01T11:07:08.352Z,97430.38
2019-04-01T11:09:38.957Z,97427.60
2019-04-01T11:12:10.417Z,97426.26
2019-04-01T11:14:40.618Z,97418.11
2019-04-01T11:17:10.993Z,97417.64
2019-04-01T11:19:41.279Z,97420.42
2019-04-01T11:22:11.598Z,97411.97
2019-04-01T11:24:41.907Z,97415.42
2019-04-01T11:27:12.262Z,97411.51
2019-04-01T11:29:43.038Z,97408.72
2019-04-01T11:32:13.818Z,97405.20
2019-04-01T11:34:44.356Z,97400.78
2019-04-01T11:37:17.301Z,97396.65
2019-04-01T11:39:47.718Z,97385.55
2019-04-01T11:42:18.196Z,97395.61
2019-04-01T11:44:48.516Z,97389.00
2019-04-01T11:47:21.957Z,97393.39
2019-04-01T11:49:50.837Z,97394.94
2019-04-01T11:52:21.193Z,97387.20
2019-04-01T11:54:51.506Z,97383.64
2019-04-01T11:57:21.783Z,97385.28
2019-04-01T11:59:52.055Z,97374.25
2019-04-01T12:02:22.263Z,97374.15
2019-04-01T12:04:52.785Z,97366.97
2019-04-01T12:07:23.588Z,97363.89
2019-04-01T12:09:55.307Z,97361.14
2019-04-01T12:12:26.649Z,97360.27
2019-04-01T12:14:57.033Z,97357.11
2019-04-01T12:17:27.376Z,97357.58
2019-04-01T12:19:57.820Z,97355.77
2019-04-01T12:22:30.385Z,97351.35
2019-04-01T12:25:02.999Z,97353.56
2019-04-01T12:27:33.329Z,97350.58
2019-04-01T12:30:04.979Z,97354.23
2019-04-01T12:32:37.953Z,97346.66
2019-04-01T12:35:08.338Z,97336.80
2019-04-01T12:37:38.861Z,97346.45
2019-04-01T12:40:11.328Z,97344.85
2019-04-01T12:42:41.591Z,97343.41
2019-04-01T12:45:11.861Z,97340.25
2019-04-01T12:47:43.397Z,97345.22
2019-04-01T12:50:14.036Z,97340.72
2019-04-01T12:52:44.341Z,97339.48
2019-04-01T12:55:14.656Z,97336.80
2019-04-01T12:57:48.232Z,97330.09
2019-04-01T13:00:16.974Z,97323.76
2019-04-01T13:02:47.253Z,97314.84
2019-04-01T13:05:17.490Z,97312.66
2019-04-01T13:07:47.934Z,97309.00
2019-04-01T13:10:18.200Z,97307.66
2019-04-01T13:12:48.590Z,97306.80
2019-04-01T13:15:18.973Z,97302.30
2019-04-01T13:17:51.952Z,97304.52
2019-04-01T13:20:36.700Z,97299.25
2019-04-01T13:22:54.331Z,97297.34
2019-04-01T13:25:25.333Z,97291.20
2019-04-01T13:27:57.125Z,97288.52
2019-04-01T13:30:28.396Z,97283.16
2019-04-01T13:32:58.636Z,97283.99
2019-04-01T13:35:29.033Z,97278.73
2019-04-01T13:38:00.369Z,97280.48
2019-04-01T13:40:30.654Z,97281.89
2019-04-01T13:43:04.399Z,97276.16
2019-04-01T13:45:33.032Z,97273.95
2019-04-01T13:48:03.377Z,97275.69
2019-04-01T13:50:33.639Z,97276.92
2019-04-01T13:53:04.392Z,97273.37
2019-04-01T13:55:34.661Z,97262.28
2019-04-01T13:58:05.499Z,97263.22
2019-04-01T14:00:35.756Z,97259.96
2019-04-01T14:03:06.077Z,97260.94
2019-04-01T14:05:37.448Z,97258.25
2019-04-01T14:08:07.776Z,97252.39
2019-04-01T14:10:40.562Z,97251.55
2019-04-01T14:13:10.193Z,97251.15
2019-04-01T14:15:40.470Z,97248.00
2019-04-01T14:18:10.772Z,97251.55
2019-04-01T14:20:41.087Z,97246.66
2019-04-01T14:23:11.379Z,97243.68
2019-04-01T14:25:42.286Z,97243.31
2019-04-01T14:28:13.762Z,97239.19
2019-04-01T14:30:44.470Z,97236.98
2019-04-01T14:33:14.806Z,97235.63
2019-04-01T14:35:45.483Z,97233.06
2019-04-01T14:38:15.767Z,97232.59
2019-04-01T14:40:46.237Z,97229.98
2019-04-01T14:43:16.659Z,97232.77
2019-04-01T14:45:46.982Z,97234.58
2019-04-01T14:48:17.518Z,97232.98
2019-04-01T14:50:48.852Z,97228.45
2019-04-01T14:53:19.234Z,97229.89
2019-04-01T14:55:52.507Z,97227.21
2019-04-01T14:58:23.977Z,97235.26
2019-04-01T15:00:54.465Z,97229.13
2019-04-01T15:03:27.180Z,97234.59
2019-04-01T15:05:57.504Z,97231.16
2019-04-01T15:08:28.593Z,97238.73
2019-04-01T15:10:58.920Z,97231.63
2019-04-01T15:13:29.569Z,97230.86
2019-04-01T15:16:00.051Z,97226.36
2019-04-01T15:18:34.284Z,97223.28
2019-04-01T15:21:04.600Z,97222.34
2019-04-01T15:23:35.816Z,97224.92
2019-04-01T15:26:08.245Z,97220.53
2019-04-01T15:28:38.622Z,97216.11
2019-04-01T15:31:08.926Z,97215.64
2019-04-01T15:33:39.199Z,97208.94
2019-04-01T15:36:09.521Z,97209.11
2019-04-01T15:38:39.812Z,97209.11
2019-04-01T15:41:10.273Z,97210.09
2019-04-01T15:43:41.058Z,97212.00
2019-04-01T15:46:11.496Z,97208.09
2019-04-01T15:48:41.799Z,97205.11
2019-04-01T15:51:12.146Z,97201.96
2019-04-01T15:53:42.521Z,97199.28
2019-04-01T15:56:12.837Z,97203.77
2019-04-01T15:58:43.204Z,97203.77
2019-04-01T16:01:13.593Z,97196.78
2019-04-01T16:03:43.900Z,97194.09
2019-04-01T16:06:14.158Z,97199.93
2019-04-01T16:08:44.445Z,97194.56
2019-04-01T16:11:14.827Z,97196.98
2019-04-01T16:13:45.199Z,97197.35
2019-04-01T16:16:15.502Z,97197.45
2019-04-01T16:18:45.834Z,97205.97
2019-04-01T16:21:16.134Z,97201.95
2019-04-01T16:23:47.313Z,97199.48
2019-04-01T16:26:18.018Z,97194.69
2019-04-01T16:28:50.979Z,97196.97
2019-04-01T16:31:21.255Z,97200.05
2019-04-01T16:33:51.591Z,97204.72
2019-04-01T16:36:21.802Z,97202.91
2019-04-01T16:38:52.146Z,97206.06
2019-04-01T16:41:22.431Z,97208.84
2019-04-01T16:43:52.750Z,97209.31
2019-04-01T16:46:23.240Z,97210.66
2019-04-01T16:48:54.652Z,97211.63
2019-04-01T16:51:25.029Z,97208.95
2019-04-01T16:53:56.260Z,97207.78
2019-04-01T16:56:26.694Z,97213.24
2019-04-01T16:58:57.299Z,97211.91
2019-04-01T17:01:27.744Z,97212.58
2019-04-01T17:03:58.058Z,97221.09
2019-04-01T17:06:28.409Z,97213.52
2019-04-01T17:08:58.641Z,97219.38
2019-04-01T17:11:30.881Z,97216.20
2019-04-01T17:14:01.342Z,97224.05
2019-04-01T17:16:35.281Z,97233.83
2019-04-01T17:19:07.962Z,97239.75
2019-04-01T17:21:38.432Z,97239.35
2019-04-01T17:24:08.870Z,97238.78
2019-04-01T17:27:00.329Z,97240.52
2019-04-01T17:29:31.913Z,97243.50
2019-04-01T17:32:02.382Z,97244.34
2019-04-01T17:34:32.647Z,97243.50
2019-04-01T17:37:02.942Z,97247.98
2019-04-01T17:39:34.187Z,97250.37
2019-04-01T17:42:05.014Z,97247.69
2019-04-01T17:44:35.490Z,97248.09
2019-04-01T17:47:06.333Z,97256.13
2019-04-01T17:49:36.869Z,97258.88
2019-04-01T17:52:07.198Z,97259.75
2019-04-01T17:54:40.028Z,97268.25
2019-04-01T17:57:11.772Z,97280.61
2019-04-01T17:59:42.062Z,97286.44
2019-04-01T18:02:13.599Z,97286.00
2019-04-01T18:04:46.149Z,97293.84
2019-04-01T18:07:17.636Z,97294.81
2019-04-01T18:09:48.898Z,97300.94
2019-04-01T18:12:19.252Z,97295.58
2019-04-01T18:14:49.614Z,97304.39
2019-04-01T18:17:23.310Z,97298.05
2019-04-01T18:19:53.628Z,97307.73
2019-04-01T18:22:24.027Z,97307.84
2019-04-01T18:24:54.377Z,97305.05
2019-04-01T18:27:24.642Z,97308.98
2019-04-01T18:29:55.030Z,97313.56
2019-04-01T18:32:27.998Z,97314.91
2019-04-01T18:34:58.338Z,97314.44
2019-04-01T18:37:29.149Z,97322.38
2019-04-01T18:39:59.752Z,97319.80
2019-04-01T18:42:33.616Z,97324.29
2019-04-01T18:45:04.466Z,97330.05
2019-04-01T18:47:34.777Z,97336.75
2019-04-01T18:50:05.231Z,97334.14
2019-04-01T18:52:35.602Z,97338.56
2019-04-01T18:55:10.370Z,97341.14
2019-04-01T18:57:40.815Z,97345.27
2019-04-01T19:00:12.056Z,97353.03
2019-04-01T19:02:43.474Z,97351.30
2019-04-01T19:05:13.802Z,97348.14
2019-04-01T19:07:44.108Z,97346.34
2019-04-01T19:10:14.494Z,97359.64
2019-04-01T19:12:43.190Z,97356.85
2019-04-01T19:15:15.184Z,97363.55
2019-04-01T19:17:45.517Z,97371.13
2019-04-01T19:20:15.796Z,97373.34
2019-04-01T19:22:47.933Z,97375.52
2019-04-01T19:25:18.222Z,97373.71
2019-04-01T19:27:49.223Z,97382.16
2019-04-01T19:30:20.500Z,97387.88
2019-04-01T19:32:50.808Z,97385.61
2019-04-01T19:35:21.128Z,97390.87
2019-04-01T19:37:51.554Z,97389.42
2019-04-01T19:40:23.110Z,97394.63
2019-04-01T19:42:53.925Z,97398.08
2019-04-01T19:45:24.294Z,97400.66
2019-04-01T19:47:57.154Z,97392.98
2019-04-01T19:50:26.620Z,97397.30
2019-04-01T19:52:56.910Z,97395.02
2019-04-01T19:55:27.325Z,97401.73
2019-04-01T19:57:57.627Z,97395.79
2019-04-01T20:00:29.644Z,97403.73
2019-04-01T20:03:00.122Z,97400.59
2019-04-01T20:05:31.171Z,97406.72
2019-04-01T20:08:01.811Z,97403.46
2019-04-01T20:10:32.069Z,97408.33
2019-04-01T20:13:02.464Z,97411.88
2019-04-01T20:15:32.803Z,97410.84
2019-04-01T20:18:03.149Z,97415.73
2019-04-01T20:20:33.485Z,97421.94
2019-04-01T20:23:05.443Z,97419.25
2019-04-01T20:25:35.750Z,97419.19
2019-04-01T20:28:06.247Z,97415.16
2019-04-01T20:30:37.949Z,97419.95
2019-04-01T20:33:17.630Z,97422.64
2019-04-01T20:35:40.630Z,97419.45
2019-04-01T20:38:11.251Z,97423.41
2019-04-01T20:40:41.831Z,97427.33
2019-04-01T20:43:12.148Z,97420.62
2019-04-01T20:45:42.916Z,97420.98
2019-04-01T20:48:15.311Z,97417.84
2019-04-01T20:50:45.657Z,97415.16
2019-04-01T20:53:16.015Z,97428.40
2019-04-01T20:55:48.467Z,97422.56
2019-04-01T20:58:19.660Z,97429.20
2019-04-01T21:00:50.220Z,97427.36
2019-04-01T21:03:20.812Z,97430.81
2019-04-01T21:05:51.106Z,97430.73
2019-04-01T21:08:21.418Z,97433.89
2019-04-01T21:10:51.753Z,97438.28
2019-04-01T21:13:22.055Z,97428.83
2019-04-01T21:15:52.319Z,97427.38
2019-04-01T21:18:22.625Z,97425.53
2019-04-01T21:20:52.875Z,97427.75
2019-04-01T21:23:23.054Z,97426.98
2019-04-01T21:25:53.518Z,97426.04
2019-04-01T21:28:24.943Z,97426.30
2019-04-01T21:30:55.796Z,97428.05
2019-04-01T21:33:26.225Z,97430.16
2019-04-01T21:35:56.571Z,97430.36
2019-04-01T21:38:26.860Z,97429.48
2019-04-01T21:40:57.128Z,97429.48
2019-04-01T21:43:27.400Z,97430.36
2019-04-01T21:45:57.729Z,97428.72
2019-04-01T21:48:27.956Z,97433.14
2019-04-01T21:50:58.494Z,97434.75
2019-04-01T21:53:28.758Z,97436.86
2019-04-01T21:55:59.067Z,97437.73
2019-04-01T21:58:29.307Z,97437.26
2019-04-01T22:01:00.524Z,97434.94
2019-04-01T22:03:32.318Z,97437.05
2019-04-01T22:06:02.668Z,97442.82
2019-04-01T22:08:32.967Z,97444.16
2019-04-01T22:11:03.484Z,97437.55
2019-04-01T22:13:33.805Z,97438.39
2019-04-01T22:16:04.069Z,97442.82
2019-04-01T22:18:34.443Z,97445.50
2019-04-01T22:21:04.706Z,97442.42
2019-04-01T22:23:35.525Z,97440.91
2019-04-01T22:26:05.800Z,97442.14
2019-04-01T22:28:36.115Z,97440.33
2019-04-01T22:31:06.426Z,97437.64
2019-04-01T22:33:35.083Z,97440.70
2019-04-01T22:36:05.573Z,97441.47
2019-04-01T22:38:35.873Z,97439.35
2019-04-01T22:41:06.243Z,97435.62
2019-04-01T22:43:36.563Z,97442.34
2019-04-01T22:46:06.879Z,97443.10
2019-04-01T22:48:37.148Z,97445.31
2019-04-01T22:51:08.657Z,97436.86
2019-04-01T22:53:41.448Z,97441.76
2019-04-01T22:56:11.740Z,97442.63
2019-04-01T22:58:43.559Z,97441.19
2019-04-01T23:01:13.791Z,97435.81
2019-04-01T23:03:44.057Z,97438.14
2019-04-01T23:06:14.325Z,97433.03
2019-04-01T23:08:45.335Z,97431.22
2019-04-01T23:11:15.633Z,97426.31
2019-04-01T23:13:45.863Z,97421.82
2019-04-01T23:16:16.206Z,97419.23
2019-04-01T23:18:46.500Z,97416.92
2019-04-01T23:21:16.734Z,97413.88
2019-04-01T23:23:47.003Z,97414.23
2019-04-01T23:26:17.301Z,97412.53
2019-04-01T23:28:48.574Z,97408.87
2019-04-01T23:31:18.858Z,97407.92
2019-04-01T23:33:49.567Z,97409.84
2019-04-01T23:36:20.193Z,97406.69
2019-04-01T23:38:53.557Z,97415.98
2019-04-01T23:41:23.840Z,97418.20
2019-04-01T23:43:54.208Z,97424.03
2019-04-01T23:46:25.372Z,97417.80
2019-04-01T23:48:55.637Z,97421.45
2019-04-01T23:51:25.912Z,97413.77
2019-04-01T23:53:56.246Z,97421.24
2019-04-01T23:56:29.656Z,97417.80
2019-04-01T23:58:59.907Z,97413.19
